sensor_id;sensor_type;location;lat;lon;timestamp;pressure;altitude;pressure_sealevel;temperature;humidity
65010;BME280;51556;50.002;22.014;2023-10-19T00:01:08;98814.59;;;6.13;65.96
65010;BME280;51556;50.002;22.014;2023-10-19T00:03:35;98810.27;;;6.11;66.12
65010;BME280;51556;50.002;22.014;2023-10-19T00:06:00;98807.15;;;6.09;65.91
65010;BME280;51556;50.002;22.014;2023-10-19T00:08:26;98803.77;;;6.01;65.88
65010;BME280;51556;50.002;22.014;2023-10-19T00:11:02;98802.65;;;5.95;65.93
65010;BME280;51556;50.002;22.014;2023-10-19T00:13:30;98798.36;;;5.91;66.01
65010;BME280;51556;50.002;22.014;2023-10-19T00:15:56;98799.12;;;5.85;65.90
65010;BME280;51556;50.002;22.014;2023-10-19T00:18:25;98791.89;;;5.78;66.01
65010;BME280;51556;50.002;22.014;2023-10-19T00:20:52;98791.83;;;5.71;66.06
65010;BME280;51556;50.002;22.014;2023-10-19T00:23:20;98787.55;;;5.63;66.11
65010;BME280;51556;50.002;22.014;2023-10-19T00:26:02;98780.50;;;5.58;66.31
65010;BME280;51556;50.002;22.014;2023-10-19T00:28:34;98775.37;;;5.51;66.15
65010;BME280;51556;50.002;22.014;2023-10-19T00:31:01;98775.45;;;5.45;66.43
65010;BME280;51556;50.002;22.014;2023-10-19T00:33:34;98767.69;;;5.38;66.62
65010;BME280;51556;50.002;22.014;2023-10-19T00:36:04;98765.13;;;5.34;66.50
65010;BME280;51556;50.002;22.014;2023-10-19T00:38:34;98762.39;;;5.30;66.59
65010;BME280;51556;50.002;22.014;2023-10-19T00:41:02;98759.50;;;5.24;66.68
65010;BME280;51556;50.002;22.014;2023-10-19T00:43:33;98755.40;;;5.19;66.64
65010;BME280;51556;50.002;22.014;2023-10-19T00:46:12;98748.37;;;5.11;66.83
65010;BME280;51556;50.002;22.014;2023-10-19T00:48:47;98752.49;;;5.01;66.91
65010;BME280;51556;50.002;22.014;2023-10-19T00:51:16;98749.97;;;4.94;67.24
65010;BME280;51556;50.002;22.014;2023-10-19T00:54:16;98742.21;;;4.86;67.15
65010;BME280;51556;50.002;22.014;2023-10-19T00:56:47;98742.58;;;4.85;67.25
65010;BME280;51556;50.002;22.014;2023-10-19T00:59:23;98736.52;;;4.83;67.52
65010;BME280;51556;50.002;22.014;2023-10-19T01:01:56;98730.44;;;4.82;67.43
65010;BME280;51556;50.002;22.014;2023-10-19T01:04:40;98723.23;;;4.83;67.66
65010;BME280;51556;50.002;22.014;2023-10-19T01:07:09;98716.92;;;4.86;67.57
65010;BME280;51556;50.002;22.014;2023-10-19T01:09:42;98717.02;;;4.93;67.54
65010;BME280;51556;50.002;22.014;2023-10-19T01:12:09;98715.38;;;4.98;67.53
65010;BME280;51556;50.002;22.014;2023-10-19T01:15:10;98708.34;;;5.03;67.43
65010;BME280;51556;50.002;22.014;2023-10-19T01:17:41;98700.30;;;5.05;67.54
65010;BME280;51556;50.002;22.014;2023-10-19T01:20:19;98701.16;;;5.05;67.26
65010;BME280;51556;50.002;22.014;2023-10-19T01:22:49;98700.45;;;5.07;67.49
65010;BME280;51556;50.002;22.014;2023-10-19T01:25:19;98697.45;;;5.09;67.45
65010;BME280;51556;50.002;22.014;2023-10-19T01:27:50;98695.98;;;5.14;67.53
65010;BME280;51556;50.002;22.014;2023-10-19T01:30:20;98692.81;;;5.16;67.27
65010;BME280;51556;50.002;22.014;2023-10-19T01:32:46;98689.83;;;5.18;67.13
65010;BME280;51556;50.002;22.014;2023-10-19T01:35:11;98684.77;;;5.18;67.13
65010;BME280;51556;50.002;22.014;2023-10-19T01:37:37;98688.64;;;5.16;67.16
65010;BME280;51556;50.002;22.014;2023-10-19T01:40:03;98687.83;;;5.11;67.20
65010;BME280;51556;50.002;22.014;2023-10-19T01:42:30;98688.92;;;5.07;67.24
65010;BME280;51556;50.002;22.014;2023-10-19T01:44:56;98688.66;;;5.01;67.23
65010;BME280;51556;50.002;22.014;2023-10-19T01:47:21;98681.42;;;4.94;67.29
65010;BME280;51556;50.002;22.014;2023-10-19T01:49:47;98682.71;;;4.89;67.38
65010;BME280;51556;50.002;22.014;2023-10-19T01:52:17;98677.75;;;4.83;67.52
65010;BME280;51556;50.002;22.014;2023-10-19T01:54:43;98673.15;;;4.76;67.61
65010;BME280;51556;50.002;22.014;2023-10-19T01:57:09;98667.15;;;4.67;67.60
65010;BME280;51556;50.002;22.014;2023-10-19T01:59:35;98665.30;;;4.62;67.81
65010;BME280;51556;50.002;22.014;2023-10-19T02:02:00;98662.89;;;4.59;67.83
65010;BME280;51556;50.002;22.014;2023-10-19T02:04:27;98658.38;;;4.57;67.82
65010;BME280;51556;50.002;22.014;2023-10-19T02:06:53;98655.27;;;4.55;67.67
65010;BME280;51556;50.002;22.014;2023-10-19T02:09:18;98649.39;;;4.51;67.93
65010;BME280;51556;50.002;22.014;2023-10-19T02:11:58;98649.80;;;4.47;67.97
65010;BME280;51556;50.002;22.014;2023-10-19T02:14:25;98643.45;;;4.41;68.31
65010;BME280;51556;50.002;22.014;2023-10-19T02:16:53;98638.65;;;4.34;68.14
65010;BME280;51556;50.002;22.014;2023-10-19T02:19:23;98638.54;;;4.27;68.00
65010;BME280;51556;50.002;22.014;2023-10-19T02:21:52;98630.94;;;4.22;68.46
65010;BME280;51556;50.002;22.014;2023-10-19T02:24:18;98628.89;;;4.19;68.31
65010;BME280;51556;50.002;22.014;2023-10-19T02:26:45;98626.34;;;4.12;68.30
65010;BME280;51556;50.002;22.014;2023-10-19T02:29:12;98618.30;;;4.02;68.67
65010;BME280;51556;50.002;22.014;2023-10-19T02:31:42;98620.27;;;3.96;68.93
65010;BME280;51556;50.002;22.014;2023-10-19T02:34:09;98614.73;;;3.94;69.11
65010;BME280;51556;50.002;22.014;2023-10-19T02:36:41;98614.02;;;3.93;69.35
65010;BME280;51556;50.002;22.014;2023-10-19T02:39:09;98614.39;;;3.93;69.17
65010;BME280;51556;50.002;22.014;2023-10-19T02:41:39;98610.73;;;3.93;69.79
65010;BME280;51556;50.002;22.014;2023-10-19T02:44:09;98607.75;;;3.94;69.50
65010;BME280;51556;50.002;22.014;2023-10-19T02:46:45;98602.73;;;3.92;69.61
65010;BME280;51556;50.002;22.014;2023-10-19T02:49:13;98603.95;;;3.91;69.91
65010;BME280;51556;50.002;22.014;2023-10-19T02:51:40;98599.80;;;3.89;69.63
65010;BME280;51556;50.002;22.014;2023-10-19T02:54:07;98601.37;;;3.88;69.41
65010;BME280;51556;50.002;22.014;2023-10-19T02:56:34;98597.21;;;3.87;69.84
65010;BME280;51556;50.002;22.014;2023-10-19T02:59:05;98597.23;;;3.85;69.83
65010;BME280;51556;50.002;22.014;2023-10-19T03:01:31;98594.43;;;3.86;69.70
65010;BME280;51556;50.002;22.014;2023-10-19T03:04:00;98590.25;;;3.86;69.98
65010;BME280;51556;50.002;22.014;2023-10-19T03:06:29;98581.52;;;3.89;69.69
65010;BME280;51556;50.002;22.014;2023-10-19T03:08:59;98579.93;;;3.91;69.66
65010;BME280;51556;50.002;22.014;2023-10-19T03:11:47;98575.44;;;3.88;69.70
65010;BME280;51556;50.002;22.014;2023-10-19T03:14:17;98575.64;;;3.85;69.78
65010;BME280;51556;50.002;22.014;2023-10-19T03:16:43;98572.88;;;3.83;69.65
65010;BME280;51556;50.002;22.014;2023-10-19T03:19:09;98568.70;;;3.83;69.33
65010;BME280;51556;50.002;22.014;2023-10-19T03:21:35;98567.33;;;3.80;69.57
65010;BME280;51556;50.002;22.014;2023-10-19T03:24:14;98561.98;;;3.76;69.80
65010;BME280;51556;50.002;22.014;2023-10-19T03:26:59;98560.07;;;3.76;69.78
65010;BME280;51556;50.002;22.014;2023-10-19T03:29:25;98554.11;;;3.79;69.94
65010;BME280;51556;50.002;22.014;2023-10-19T03:32:04;98551.99;;;3.82;69.92
65010;BME280;51556;50.002;22.014;2023-10-19T03:34:31;98550.43;;;3.81;69.87
65010;BME280;51556;50.002;22.014;2023-10-19T03:36:58;98546.59;;;3.83;69.69
65010;BME280;51556;50.002;22.014;2023-10-19T03:39:34;98544.84;;;3.84;69.73
65010;BME280;51556;50.002;22.014;2023-10-19T03:41:59;98542.71;;;3.87;70.22
65010;BME280;51556;50.002;22.014;2023-10-19T03:44:26;98542.02;;;3.86;69.78
65010;BME280;51556;50.002;22.014;2023-10-19T03:46:51;98541.70;;;3.85;69.50
65010;BME280;51556;50.002;22.014;2023-10-19T03:49:23;98535.62;;;3.83;69.98
65010;BME280;51556;50.002;22.014;2023-10-19T03:51:55;98535.48;;;3.81;69.63
65010;BME280;51556;50.002;22.014;2023-10-19T03:54:25;98533.23;;;3.78;70.16
65010;BME280;51556;50.002;22.014;2023-10-19T03:56:52;98535.70;;;3.75;69.93
65010;BME280;51556;50.002;22.014;2023-10-19T03:59:18;98533.48;;;3.72;69.77
65010;BME280;51556;50.002;22.014;2023-10-19T04:01:45;98527.98;;;3.68;69.83
65010;BME280;51556;50.002;22.014;2023-10-19T04:04:11;98518.58;;;3.69;70.32
65010;BME280;51556;50.002;22.014;2023-10-19T04:06:36;98513.88;;;3.69;70.06
65010;BME280;51556;50.002;22.014;2023-10-19T04:09:03;98511.27;;;3.67;70.28
65010;BME280;51556;50.002;22.014;2023-10-19T04:11:31;98509.03;;;3.65;70.21
65010;BME280;51556;50.002;22.014;2023-10-19T04:14:17;98511.14;;;3.64;70.16
65010;BME280;51556;50.002;22.014;2023-10-19T04:16:45;98508.02;;;3.63;69.98
65010;BME280;51556;50.002;22.014;2023-10-19T04:19:22;98501.95;;;3.62;70.56
65010;BME280;51556;50.002;22.014;2023-10-19T04:21:48;98499.46;;;3.65;70.17
65010;BME280;51556;50.002;22.014;2023-10-19T04:24:15;98493.18;;;3.68;70.59
65010;BME280;51556;50.002;22.014;2023-10-19T04:26:42;98489.31;;;3.70;70.13
65010;BME280;51556;50.002;22.014;2023-10-19T04:29:08;98488.02;;;3.74;69.96
65010;BME280;51556;50.002;22.014;2023-10-19T04:31:38;98480.00;;;3.76;70.35
65010;BME280;51556;50.002;22.014;2023-10-19T04:34:14;98471.34;;;3.73;70.25
65010;BME280;51556;50.002;22.014;2023-10-19T04:36:42;98466.63;;;3.73;69.76
65010;BME280;51556;50.002;22.014;2023-10-19T04:39:08;98461.41;;;3.73;70.38
65010;BME280;51556;50.002;22.014;2023-10-19T04:41:39;98453.95;;;3.72;70.78
65010;BME280;51556;50.002;22.014;2023-10-19T04:44:05;98445.04;;;3.73;70.22
65010;BME280;51556;50.002;22.014;2023-10-19T04:46:33;98439.13;;;3.73;70.32
65010;BME280;51556;50.002;22.014;2023-10-19T04:48:59;98431.82;;;3.73;70.26
65010;BME280;51556;50.002;22.014;2023-10-19T04:51:24;98431.83;;;3.72;70.20
65010;BME280;51556;50.002;22.014;2023-10-19T04:53:50;98434.21;;;3.77;70.05
65010;BME280;51556;50.002;22.014;2023-10-19T04:56:15;98436.20;;;3.84;69.75
65010;BME280;51556;50.002;22.014;2023-10-19T04:58:41;98437.56;;;3.87;69.83
65010;BME280;51556;50.002;22.014;2023-10-19T05:01:06;98441.36;;;3.89;70.02
65010;BME280;51556;50.002;22.014;2023-10-19T05:03:32;98438.19;;;3.92;69.90
65010;BME280;51556;50.002;22.014;2023-10-19T05:05:58;98430.50;;;3.94;69.99
65010;BME280;51556;50.002;22.014;2023-10-19T05:08:24;98429.27;;;3.94;69.94
65010;BME280;51556;50.002;22.014;2023-10-19T05:10:56;98431.85;;;3.97;70.00
65010;BME280;51556;50.002;22.014;2023-10-19T05:13:25;98427.48;;;3.98;70.38
65010;BME280;51556;50.002;22.014;2023-10-19T05:15:51;98419.14;;;3.97;70.10
65010;BME280;51556;50.002;22.014;2023-10-19T05:18:18;98417.27;;;3.94;70.20
65010;BME280;51556;50.002;22.014;2023-10-19T05:20:45;98419.33;;;3.96;70.39
65010;BME280;51556;50.002;22.014;2023-10-19T05:23:11;98418.24;;;3.98;70.64
65010;BME280;51556;50.002;22.014;2023-10-19T05:25:39;98421.55;;;3.99;70.80
65010;BME280;51556;50.002;22.014;2023-10-19T05:28:05;98424.70;;;3.98;70.70
65010;BME280;51556;50.002;22.014;2023-10-19T05:30:32;98427.17;;;3.95;70.83
65010;BME280;51556;50.002;22.014;2023-10-19T05:32:58;98430.31;;;3.95;70.93
65010;BME280;51556;50.002;22.014;2023-10-19T05:35:25;98430.31;;;3.95;71.97
65010;BME280;51556;50.002;22.014;2023-10-19T05:37:55;98434.11;;;3.98;71.59
65010;BME280;51556;50.002;22.014;2023-10-19T05:40:24;98435.45;;;4.02;71.73
65010;BME280;51556;50.002;22.014;2023-10-19T05:42:56;98438.70;;;4.06;71.98
65010;BME280;51556;50.002;22.014;2023-10-19T05:45:22;98436.80;;;4.16;71.51
65010;BME280;51556;50.002;22.014;2023-10-19T05:47:47;98437.58;;;4.23;71.73
65010;BME280;51556;50.002;22.014;2023-10-19T05:50:13;98434.92;;;4.25;71.70
65010;BME280;51556;50.002;22.014;2023-10-19T05:52:43;98429.63;;;4.30;72.11
65010;BME280;51556;50.002;22.014;2023-10-19T05:55:09;98431.84;;;4.33;71.75
65010;BME280;51556;50.002;22.014;2023-10-19T05:57:37;98426.91;;;4.37;72.32
65010;BME280;51556;50.002;22.014;2023-10-19T06:00:07;98427.53;;;4.42;72.23
65010;BME280;51556;50.002;22.014;2023-10-19T06:02:33;98420.60;;;4.48;72.46
65010;BME280;51556;50.002;22.014;2023-10-19T06:05:00;98421.54;;;4.55;72.47
65010;BME280;51556;50.002;22.014;2023-10-19T06:07:25;98418.03;;;4.67;72.42
65010;BME280;51556;50.002;22.014;2023-10-19T06:09:50;98417.53;;;4.77;72.34
65010;BME280;51556;50.002;22.014;2023-10-19T06:12:16;98412.11;;;4.86;72.44
65010;BME280;51556;50.002;22.014;2023-10-19T06:14:41;98406.93;;;4.93;72.49
65010;BME280;51556;50.002;22.014;2023-10-19T06:17:07;98402.10;;;5.00;72.48
65010;BME280;51556;50.002;22.014;2023-10-19T06:19:32;98396.30;;;5.12;72.16
65010;BME280;51556;50.002;22.014;2023-10-19T06:21:57;98388.55;;;5.17;71.97
65010;BME280;51556;50.002;22.014;2023-10-19T06:24:23;98387.91;;;5.21;72.18
65010;BME280;51556;50.002;22.014;2023-10-19T06:26:48;98386.42;;;5.25;72.17
65010;BME280;51556;50.002;22.014;2023-10-19T06:29:13;98381.29;;;5.30;72.09
65010;BME280;51556;50.002;22.014;2023-10-19T06:31:39;98385.70;;;5.36;72.30
65010;BME280;51556;50.002;22.014;2023-10-19T06:34:04;98382.98;;;5.42;72.37
65010;BME280;51556;50.002;22.014;2023-10-19T06:36:30;98383.57;;;5.47;72.26
65010;BME280;51556;50.002;22.014;2023-10-19T06:38:55;98382.36;;;5.55;72.17
65010;BME280;51556;50.002;22.014;2023-10-19T06:41:20;98380.89;;;5.57;72.33
65010;BME280;51556;50.002;22.014;2023-10-19T06:43:46;98377.36;;;5.58;72.38
65010;BME280;51556;50.002;22.014;2023-10-19T06:46:12;98373.33;;;5.59;72.72
65010;BME280;51556;50.002;22.014;2023-10-19T06:48:38;98371.20;;;5.61;72.72
65010;BME280;51556;50.002;22.014;2023-10-19T06:51:03;98365.36;;;5.65;72.57
65010;BME280;51556;50.002;22.014;2023-10-19T06:53:30;98370.87;;;5.68;72.91
65010;BME280;51556;50.002;22.014;2023-10-19T06:55:56;98369.32;;;5.76;72.52
65010;BME280;51556;50.002;22.014;2023-10-19T06:58:22;98369.40;;;5.80;72.55
65010;BME280;51556;50.002;22.014;2023-10-19T07:00:52;98367.54;;;5.86;72.57
65010;BME280;51556;50.002;22.014;2023-10-19T07:03:30;98362.61;;;5.95;72.86
65010;BME280;51556;50.002;22.014;2023-10-19T07:05:56;98352.99;;;6.03;72.50
65010;BME280;51556;50.002;22.014;2023-10-19T07:08:22;98347.47;;;6.16;72.60
65010;BME280;51556;50.002;22.014;2023-10-19T07:10:47;98338.30;;;6.26;72.62
65010;BME280;51556;50.002;22.014;2023-10-19T07:13:15;98342.76;;;6.36;72.72
65010;BME280;51556;50.002;22.014;2023-10-19T07:15:41;98337.95;;;6.47;72.74
65010;BME280;51556;50.002;22.014;2023-10-19T07:18:06;98332.63;;;6.63;72.81
65010;BME280;51556;50.002;22.014;2023-10-19T07:20:32;98322.11;;;6.77;72.70
65010;BME280;51556;50.002;22.014;2023-10-19T07:22:59;98316.04;;;6.89;72.90
65010;BME280;51556;50.002;22.014;2023-10-19T07:25:47;98319.27;;;6.99;72.92
65010;BME280;51556;50.002;22.014;2023-10-19T07:28:18;98315.36;;;7.12;72.95
65010;BME280;51556;50.002;22.014;2023-10-19T07:30:45;98318.24;;;7.22;72.91
65010;BME280;51556;50.002;22.014;2023-10-19T07:33:11;98318.48;;;7.32;72.95
65010;BME280;51556;50.002;22.014;2023-10-19T07:35:47;98313.36;;;7.45;72.83
65010;BME280;51556;50.002;22.014;2023-10-19T07:38:14;98308.08;;;7.58;72.92
65010;BME280;51556;50.002;22.014;2023-10-19T07:40:40;98304.73;;;7.64;72.83
65010;BME280;51556;50.002;22.014;2023-10-19T07:43:05;98301.52;;;7.72;72.90
65010;BME280;51556;50.002;22.014;2023-10-19T07:45:32;98298.73;;;7.82;72.75
65010;BME280;51556;50.002;22.014;2023-10-19T07:47:59;98292.96;;;7.98;73.21
65010;BME280;51556;50.002;22.014;2023-10-19T07:50:43;98283.07;;;8.17;72.63
65010;BME280;51556;50.002;22.014;2023-10-19T07:53:08;98273.87;;;8.36;72.35
65010;BME280;51556;50.002;22.014;2023-10-19T07:55:37;98265.45;;;8.56;72.24
65010;BME280;51556;50.002;22.014;2023-10-19T07:58:04;98267.53;;;8.72;71.13
65010;BME280;51556;50.002;22.014;2023-10-19T08:00:30;98264.73;;;8.87;70.24
65010;BME280;51556;50.002;22.014;2023-10-19T08:02:56;98262.60;;;9.01;69.95
65010;BME280;51556;50.002;22.014;2023-10-19T08:05:22;98257.31;;;9.16;69.73
65010;BME280;51556;50.002;22.014;2023-10-19T08:07:48;98263.73;;;9.32;69.26
65010;BME280;51556;50.002;22.014;2023-10-19T08:10:15;98261.98;;;9.46;68.97
65010;BME280;51556;50.002;22.014;2023-10-19T08:12:42;98251.59;;;9.55;68.86
65010;BME280;51556;50.002;22.014;2023-10-19T08:15:11;98258.35;;;9.66;68.05
65010;BME280;51556;50.002;22.014;2023-10-19T08:17:38;98255.44;;;9.73;67.29
65010;BME280;51556;50.002;22.014;2023-10-19T08:20:10;98258.69;;;9.76;66.86
65010;BME280;51556;50.002;22.014;2023-10-19T08:22:49;98250.98;;;9.79;66.79
65010;BME280;51556;50.002;22.014;2023-10-19T08:25:15;98247.14;;;9.87;66.83
65010;BME280;51556;50.002;22.014;2023-10-19T08:27:41;98243.98;;;9.96;66.75
65010;BME280;51556;50.002;22.014;2023-10-19T08:30:10;98241.27;;;10.05;66.40
65010;BME280;51556;50.002;22.014;2023-10-19T08:32:38;98234.79;;;10.14;66.59
65010;BME280;51556;50.002;22.014;2023-10-19T08:35:04;98230.49;;;10.25;66.47
65010;BME280;51556;50.002;22.014;2023-10-19T08:37:31;98233.30;;;10.34;65.59
65010;BME280;51556;50.002;22.014;2023-10-19T08:39:56;98228.77;;;10.45;64.09
65010;BME280;51556;50.002;22.014;2023-10-19T08:42:23;98216.90;;;10.54;64.61
65010;BME280;51556;50.002;22.014;2023-10-19T08:44:49;98216.55;;;10.66;63.86
65010;BME280;51556;50.002;22.014;2023-10-19T08:47:14;98213.09;;;10.81;63.98
65010;BME280;51556;50.002;22.014;2023-10-19T08:49:41;98207.98;;;10.97;63.88
65010;BME280;51556;50.002;22.014;2023-10-19T08:52:07;98204.00;;;11.11;63.45
65010;BME280;51556;50.002;22.014;2023-10-19T08:54:34;98203.54;;;11.24;62.68
65010;BME280;51556;50.002;22.014;2023-10-19T08:57:00;98200.77;;;11.34;62.56
65010;BME280;51556;50.002;22.014;2023-10-19T08:59:25;98200.11;;;11.45;61.83
65010;BME280;51556;50.002;22.014;2023-10-19T09:02:02;98202.49;;;11.54;61.21
65010;BME280;51556;50.002;22.014;2023-10-19T09:04:28;98202.04;;;11.63;61.04
65010;BME280;51556;50.002;22.014;2023-10-19T09:06:53;98203.84;;;11.73;61.15
65010;BME280;51556;50.002;22.014;2023-10-19T09:09:20;98202.84;;;11.87;60.94
65010;BME280;51556;50.002;22.014;2023-10-19T09:11:47;98201.52;;;11.99;60.58
65010;BME280;51556;50.002;22.014;2023-10-19T09:14:15;98196.65;;;12.12;60.33
65010;BME280;51556;50.002;22.014;2023-10-19T09:16:54;98185.44;;;12.21;60.16
65010;BME280;51556;50.002;22.014;2023-10-19T09:19:42;98176.83;;;12.27;59.41
65010;BME280;51556;50.002;22.014;2023-10-19T09:22:09;98175.73;;;12.34;58.64
65010;BME280;51556;50.002;22.014;2023-10-19T09:24:45;98176.48;;;12.40;58.14
65010;BME280;51556;50.002;22.014;2023-10-19T09:27:11;98162.64;;;12.45;58.06
65010;BME280;51556;50.002;22.014;2023-10-19T09:29:41;98150.27;;;12.53;58.19
65010;BME280;51556;50.002;22.014;2023-10-19T09:32:07;98149.20;;;12.63;57.96
65010;BME280;51556;50.002;22.014;2023-10-19T09:34:34;98147.39;;;12.76;58.74
65010;BME280;51556;50.002;22.014;2023-10-19T09:37:00;98146.54;;;12.93;57.84
65010;BME280;51556;50.002;22.014;2023-10-19T09:39:32;98143.86;;;13.05;57.22
65010;BME280;51556;50.002;22.014;2023-10-19T09:42:10;98142.58;;;13.17;57.20
65010;BME280;51556;50.002;22.014;2023-10-19T09:44:44;98141.64;;;13.30;56.82
65010;BME280;51556;50.002;22.014;2023-10-19T09:47:13;98145.60;;;13.38;55.81
65010;BME280;51556;50.002;22.014;2023-10-19T09:49:42;98139.77;;;13.48;55.82
65010;BME280;51556;50.002;22.014;2023-10-19T09:52:10;98126.44;;;13.55;55.99
65010;BME280;51556;50.002;22.014;2023-10-19T09:57:14;98119.20;;;13.58;55.51
65010;BME280;51556;50.002;22.014;2023-10-19T09:59:44;98117.80;;;13.61;55.49
65010;BME280;51556;50.002;22.014;2023-10-19T10:02:11;98112.47;;;13.64;55.72
65010;BME280;51556;50.002;22.014;2023-10-19T10:04:41;98111.42;;;13.67;55.90
65010;BME280;51556;50.002;22.014;2023-10-19T10:07:09;98099.78;;;13.73;56.51
65010;BME280;51556;50.002;22.014;2023-10-19T10:09:44;98096.61;;;13.84;56.60
65010;BME280;51556;50.002;22.014;2023-10-19T10:12:20;98095.95;;;13.95;56.63
65010;BME280;51556;50.002;22.014;2023-10-19T10:15:12;98097.00;;;14.05;56.22
65010;BME280;51556;50.002;22.014;2023-10-19T10:17:39;98092.04;;;14.11;56.53
65010;BME280;51556;50.002;22.014;2023-10-19T10:22:39;98086.07;;;14.25;56.42
65010;BME280;51556;50.002;22.014;2023-10-19T10:25:07;98083.15;;;14.32;55.98
65010;BME280;51556;50.002;22.014;2023-10-19T10:27:36;98079.67;;;14.36;56.51
65010;BME280;51556;50.002;22.014;2023-10-19T10:30:04;98071.87;;;14.48;56.29
65010;BME280;51556;50.002;22.014;2023-10-19T10:32:46;98066.80;;;14.59;56.11
65010;BME280;51556;50.002;22.014;2023-10-19T10:38:10;98071.73;;;14.71;55.58
65010;BME280;51556;50.002;22.014;2023-10-19T10:40:57;98071.28;;;14.81;56.63
65010;BME280;51556;50.002;22.014;2023-10-19T10:43:22;98066.55;;;14.91;56.02
65010;BME280;51556;50.002;22.014;2023-10-19T10:45:48;98078.40;;;14.97;56.20
65010;BME280;51556;50.002;22.014;2023-10-19T10:48:15;98076.58;;;15.00;55.39
65010;BME280;51556;50.002;22.014;2023-10-19T10:50:41;98063.55;;;14.99;55.86
65010;BME280;51556;50.002;22.014;2023-10-19T10:53:08;98056.60;;;14.97;55.90
65010;BME280;51556;50.002;22.014;2023-10-19T10:55:33;98048.96;;;14.97;56.11
65010;BME280;51556;50.002;22.014;2023-10-19T10:57:59;98045.65;;;14.91;55.64
65010;BME280;51556;50.002;22.014;2023-10-19T11:00:25;98043.13;;;14.69;55.72
65010;BME280;51556;50.002;22.014;2023-10-19T11:03:06;98029.11;;;14.55;56.46
65010;BME280;51556;50.002;22.014;2023-10-19T11:05:36;98029.73;;;14.48;56.65
65010;BME280;51556;50.002;22.014;2023-10-19T11:08:09;98031.67;;;14.46;56.87
65010;BME280;51556;50.002;22.014;2023-10-19T11:10:35;98038.30;;;14.48;57.25
65010;BME280;51556;50.002;22.014;2023-10-19T11:13:06;98033.39;;;14.44;56.88
65010;BME280;51556;50.002;22.014;2023-10-19T11:15:49;98028.42;;;14.35;56.97
65010;BME280;51556;50.002;22.014;2023-10-19T11:18:36;98020.67;;;14.26;57.22
65010;BME280;51556;50.002;22.014;2023-10-19T11:21:12;98008.13;;;14.23;57.69
65010;BME280;51556;50.002;22.014;2023-10-19T11:23:43;98009.09;;;14.19;57.52
65010;BME280;51556;50.002;22.014;2023-10-19T11:26:27;98001.67;;;14.10;57.97
65010;BME280;51556;50.002;22.014;2023-10-19T11:29:02;98006.10;;;14.10;57.95
65010;BME280;51556;50.002;22.014;2023-10-19T11:31:35;98004.13;;;14.13;58.07
65010;BME280;51556;50.002;22.014;2023-10-19T11:34:05;98017.02;;;14.16;58.31
65010;BME280;51556;50.002;22.014;2023-10-19T11:36:30;98019.94;;;14.12;58.16
65010;BME280;51556;50.002;22.014;2023-10-19T11:38:56;98013.45;;;14.06;58.14
65010;BME280;51556;50.002;22.014;2023-10-19T11:41:22;98001.61;;;13.96;58.17
65010;BME280;51556;50.002;22.014;2023-10-19T11:43:48;97996.59;;;13.91;58.65
65010;BME280;51556;50.002;22.014;2023-10-19T11:46:15;98003.80;;;13.92;59.06
65010;BME280;51556;50.002;22.014;2023-10-19T11:48:42;98006.58;;;13.99;59.22
65010;BME280;51556;50.002;22.014;2023-10-19T11:51:09;98000.11;;;14.07;59.07
65010;BME280;51556;50.002;22.014;2023-10-19T11:53:37;97990.09;;;14.09;59.05
65010;BME280;51556;50.002;22.014;2023-10-19T11:56:07;97986.52;;;14.06;58.84
65010;BME280;51556;50.002;22.014;2023-10-19T11:58:34;97989.56;;;13.96;58.85
65010;BME280;51556;50.002;22.014;2023-10-19T12:01:03;97990.74;;;13.92;59.23
65010;BME280;51556;50.002;22.014;2023-10-19T12:03:31;97995.04;;;13.91;59.29
65010;BME280;51556;50.002;22.014;2023-10-19T12:05:56;97994.15;;;13.91;59.44
65010;BME280;51556;50.002;22.014;2023-10-19T12:08:22;97990.58;;;13.91;59.35
65010;BME280;51556;50.002;22.014;2023-10-19T12:10:49;97982.70;;;13.87;59.51
65010;BME280;51556;50.002;22.014;2023-10-19T12:13:15;97976.85;;;13.79;59.46
65010;BME280;51556;50.002;22.014;2023-10-19T12:15:42;97966.79;;;13.67;59.96
65010;BME280;51556;50.002;22.014;2023-10-19T12:18:07;97961.47;;;13.61;60.01
65010;BME280;51556;50.002;22.014;2023-10-19T12:20:33;97957.05;;;13.61;60.22
65010;BME280;51556;50.002;22.014;2023-10-19T12:23:01;97952.42;;;13.65;60.02
65010;BME280;51556;50.002;22.014;2023-10-19T12:25:26;97946.53;;;13.57;60.42
65010;BME280;51556;50.002;22.014;2023-10-19T12:27:57;97946.18;;;13.51;60.69
65010;BME280;51556;50.002;22.014;2023-10-19T12:30:22;97938.52;;;13.46;60.93
65010;BME280;51556;50.002;22.014;2023-10-19T12:32:51;97934.80;;;13.34;61.07
65010;BME280;51556;50.002;22.014;2023-10-19T12:35:17;97929.25;;;13.24;61.49
65010;BME280;51556;50.002;22.014;2023-10-19T12:37:48;97918.85;;;13.17;61.69
65010;BME280;51556;50.002;22.014;2023-10-19T12:40:17;97909.40;;;13.06;62.05
65010;BME280;51556;50.002;22.014;2023-10-19T12:42:52;97905.04;;;13.02;62.35
65010;BME280;51556;50.002;22.014;2023-10-19T12:45:22;97892.94;;;13.01;62.51
65010;BME280;51556;50.002;22.014;2023-10-19T12:47:48;97889.05;;;12.95;62.72
65010;BME280;51556;50.002;22.014;2023-10-19T12:50:14;97882.96;;;12.91;62.83
65010;BME280;51556;50.002;22.014;2023-10-19T12:52:43;97873.20;;;12.91;62.93
65010;BME280;51556;50.002;22.014;2023-10-19T12:55:08;97868.33;;;12.93;63.17
65010;BME280;51556;50.002;22.014;2023-10-19T12:57:34;97864.73;;;12.91;63.10
65010;BME280;51556;50.002;22.014;2023-10-19T13:00:09;97868.48;;;12.96;63.34
65010;BME280;51556;50.002;22.014;2023-10-19T13:03:07;97865.70;;;12.98;63.34
65010;BME280;51556;50.002;22.014;2023-10-19T13:06:15;97876.55;;;12.97;63.37
65010;BME280;51556;50.002;22.014;2023-10-19T13:09:07;97883.98;;;13.03;63.76
65010;BME280;51556;50.002;22.014;2023-10-19T13:11:52;97881.95;;;13.11;63.71
65010;BME280;51556;50.002;22.014;2023-10-19T13:14:47;97877.36;;;13.23;63.63
65010;BME280;51556;50.002;22.014;2023-10-19T13:21:05;97868.16;;;13.40;63.28